createdAt,value
2023-03-06T00:00:56.502Z,5.67
2023-03-06T00:03:27.742Z,6.50
2023-03-06T00:05:57.982Z,10.10
2023-03-06T00:08:27.676Z,6.80
2023-03-06T00:10:56.178Z,6.20
2023-03-06T00:13:24.499Z,7.90
2023-03-06T00:15:52.461Z,10.20
2023-03-06T00:18:20.468Z,6.37
2023-03-06T00:20:48.446Z,6.90
2023-03-06T00:23:17.770Z,6.93
2023-03-06T00:25:46.626Z,7.93
2023-03-06T00:28:15.682Z,8.33
2023-03-06T00:30:44.042Z,7.93
2023-03-06T00:33:12.140Z,7.30
2023-03-06T00:35:40.264Z,6.97
2023-03-06T00:38:08.307Z,8.90
2023-03-06T00:40:37.574Z,7.20
2023-03-06T00:43:05.512Z,7.00
2023-03-06T00:45:33.541Z,6.80
2023-03-06T00:48:01.582Z,5.93
2023-03-06T00:50:29.723Z,7.13
2023-03-06T00:52:57.672Z,6.23
2023-03-06T00:55:25.547Z,7.37
2023-03-06T00:57:54.795Z,6.00
2023-03-06T01:00:22.876Z,6.83
2023-03-06T01:02:50.916Z,8.37
2023-03-06T01:05:18.950Z,8.60
2023-03-06T01:07:46.849Z,8.73
2023-03-06T01:10:15.021Z,5.17
2023-03-06T01:12:43.024Z,11.27
2023-03-06T01:15:14.724Z,9.93
2023-03-06T01:17:42.649Z,9.53
2023-03-06T01:20:14.650Z,7.53
2023-03-06T01:22:42.536Z,7.87
2023-03-06T01:25:11.104Z,11.03
2023-03-06T01:27:39.037Z,11.00
2023-03-06T01:30:08.145Z,8.53
2023-03-06T01:32:37.413Z,9.10
2023-03-06T01:35:06.360Z,11.00
2023-03-06T01:37:36.098Z,8.17
2023-03-06T01:40:04.392Z,8.30
2023-03-06T01:42:32.342Z,9.40
2023-03-06T01:45:02.104Z,10.33
2023-03-06T01:47:30.121Z,11.70
2023-03-06T01:50:01.625Z,11.60
2023-03-06T01:52:32.262Z,9.37
2023-03-06T01:55:03.671Z,11.10
2023-03-06T01:57:35.060Z,14.00
2023-03-06T02:00:06.637Z,14.73
2023-03-06T02:02:34.798Z,12.37
2023-03-06T02:05:06.225Z,13.33
2023-03-06T02:07:35.501Z,11.27
2023-03-06T02:10:03.391Z,13.00
2023-03-06T02:12:31.844Z,16.00
2023-03-06T02:14:59.980Z,15.77
2023-03-06T02:17:28.862Z,11.80
2023-03-06T02:20:04.015Z,13.03
2023-03-06T02:22:38.529Z,14.07
2023-03-06T02:25:12.244Z,14.27
2023-03-06T02:27:42.090Z,13.80
2023-03-06T02:30:11.892Z,13.03
2023-03-06T02:32:39.783Z,14.30
2023-03-06T02:35:14.698Z,16.37
2023-03-06T02:37:42.649Z,14.57
2023-03-06T02:40:14.393Z,14.50
2023-03-06T02:42:48.903Z,15.13
2023-03-06T02:45:21.325Z,21.47
2023-03-06T02:47:49.252Z,14.30
2023-03-06T02:50:17.664Z,18.07
2023-03-06T02:52:45.577Z,15.90
2023-03-06T02:55:13.542Z,15.37
2023-03-06T02:57:41.474Z,16.37
2023-03-06T03:00:13.057Z,16.67
2023-03-06T03:02:41.163Z,19.03
2023-03-06T03:05:10.066Z,14.67
2023-03-06T03:07:38.228Z,16.93
2023-03-06T03:10:08.445Z,15.90
2023-03-06T03:12:36.425Z,16.47
2023-03-06T03:15:04.705Z,17.63
2023-03-06T03:17:36.943Z,14.30
2023-03-06T03:20:05.980Z,16.27
2023-03-06T03:22:34.022Z,15.90
2023-03-06T03:25:02.016Z,15.97
2023-03-06T03:27:30.003Z,16.33
2023-03-06T03:29:58.802Z,14.77
2023-03-06T03:32:27.471Z,18.00
2023-03-06T03:34:57.753Z,14.20
2023-03-06T03:37:25.713Z,17.47
2023-03-06T03:39:53.808Z,15.27
2023-03-06T03:42:21.785Z,15.23
2023-03-06T03:44:49.804Z,18.10
2023-03-06T03:47:17.797Z,18.00
2023-03-06T03:49:45.808Z,17.27
2023-03-06T03:52:15.041Z,18.17
2023-03-06T03:54:44.468Z,20.63
2023-03-06T03:57:12.440Z,21.13
2023-03-06T03:59:40.498Z,18.13
2023-03-06T04:02:08.564Z,19.07
2023-03-06T04:04:36.566Z,17.80
2023-03-06T04:07:04.992Z,23.17
2023-03-06T04:09:34.275Z,24.83
2023-03-06T04:12:02.216Z,19.70
2023-03-06T04:14:30.188Z,24.30
2023-03-06T04:16:59.493Z,23.93
2023-03-06T04:19:27.473Z,21.43
2023-03-06T04:21:55.299Z,21.23
2023-03-06T04:24:23.217Z,18.30
2023-03-06T04:26:52.614Z,21.10
2023-03-06T04:29:20.479Z,24.30
2023-03-06T04:31:48.435Z,21.70
2023-03-06T04:34:16.295Z,19.30
2023-03-06T04:36:45.317Z,25.70
2023-03-06T04:39:14.105Z,24.00
2023-03-06T04:41:42.311Z,20.17
2023-03-06T04:44:11.720Z,17.87
2023-03-06T04:46:39.594Z,24.63
2023-03-06T04:49:07.577Z,20.80
2023-03-06T04:51:36.758Z,19.27
2023-03-06T04:54:06.465Z,21.60
2023-03-06T04:56:34.896Z,20.30
2023-03-06T04:59:04.170Z,19.87
2023-03-06T05:01:33.378Z,23.17
2023-03-06T05:04:01.229Z,22.83
2023-03-06T05:06:29.087Z,23.27
2023-03-06T05:08:57.112Z,24.03
2023-03-06T05:11:25.096Z,23.40
2023-03-06T05:13:53.003Z,26.30
2023-03-06T05:16:20.965Z,26.67
2023-03-06T05:18:50.732Z,27.30
2023-03-06T05:21:18.740Z,24.40
2023-03-06T05:23:47.518Z,25.80
2023-03-06T05:26:16.271Z,23.47
2023-03-06T05:28:44.702Z,24.97
2023-03-06T05:31:12.636Z,26.50
2023-03-06T05:33:40.633Z,27.27
2023-03-06T05:36:10.825Z,24.90
2023-03-06T05:38:38.786Z,21.30
2023-03-06T05:41:06.781Z,23.07
2023-03-06T05:43:34.687Z,23.37
2023-03-06T05:46:03.489Z,23.67
2023-03-06T05:48:31.511Z,25.90
2023-03-06T05:51:00.421Z,25.40
2023-03-06T05:53:30.000Z,28.57
2023-03-06T05:55:59.064Z,24.67
2023-03-06T05:58:27.311Z,25.23
2023-03-06T06:00:55.232Z,28.90
2023-03-06T06:03:23.508Z,26.00
2023-03-06T06:05:52.354Z,23.33
2023-03-06T06:08:21.428Z,24.93
2023-03-06T06:10:53.298Z,23.70
2023-03-06T06:13:21.403Z,25.57
2023-03-06T06:15:50.418Z,26.63
2023-03-06T06:18:18.336Z,27.90
2023-03-06T06:20:46.191Z,27.50
2023-03-06T06:23:14.282Z,25.53
2023-03-06T06:25:42.536Z,27.33
2023-03-06T06:28:12.365Z,26.00
2023-03-06T06:30:40.264Z,26.50
2023-03-06T06:33:08.109Z,28.10
2023-03-06T06:35:37.566Z,24.67
2023-03-06T06:38:05.587Z,29.10
2023-03-06T06:40:33.482Z,26.80
2023-03-06T06:43:01.373Z,32.17
2023-03-06T06:45:30.728Z,25.57
2023-03-06T06:47:58.804Z,25.67
2023-03-06T06:50:26.966Z,28.10
2023-03-06T06:52:55.001Z,25.17
2023-03-06T06:55:22.896Z,28.53
2023-03-06T06:57:50.769Z,24.60
2023-03-06T07:00:20.009Z,22.03
2023-03-06T07:02:51.200Z,26.50
2023-03-06T07:05:21.110Z,23.70
2023-03-06T07:07:51.270Z,26.03
2023-03-06T07:10:20.743Z,26.97
2023-03-06T07:12:49.059Z,25.20
2023-03-06T07:15:17.984Z,26.07
2023-03-06T07:17:50.062Z,25.90
2023-03-06T07:20:20.882Z,25.67
2023-03-06T07:22:51.667Z,24.80
2023-03-06T07:25:20.687Z,26.03
2023-03-06T07:27:53.423Z,27.03
2023-03-06T07:30:22.850Z,27.93
2023-03-06T07:32:54.226Z,25.87
2023-03-06T07:35:24.219Z,31.17
2023-03-06T07:37:52.214Z,27.80
2023-03-06T07:40:20.899Z,26.37
2023-03-06T07:42:49.002Z,30.50
2023-03-06T07:45:17.381Z,28.83
2023-03-06T07:47:45.329Z,25.90
2023-03-06T07:50:13.574Z,30.13
2023-03-06T07:52:42.971Z,26.13
2023-03-06T07:55:11.859Z,27.83
2023-03-06T07:57:40.084Z,25.87
2023-03-06T08:00:11.360Z,23.23
2023-03-06T08:02:39.332Z,27.70
2023-03-06T08:05:08.913Z,26.03
2023-03-06T08:07:36.979Z,30.53
2023-03-06T08:10:07.236Z,30.37
2023-03-06T08:12:35.106Z,29.80
2023-03-06T08:15:03.482Z,26.50
2023-03-06T08:17:31.389Z,28.23
2023-03-06T08:19:59.399Z,26.50
2023-03-06T08:22:27.391Z,26.50
2023-03-06T08:24:56.339Z,34.37
2023-03-06T08:27:25.705Z,32.23
2023-03-06T08:29:53.650Z,28.63
2023-03-06T08:32:21.680Z,30.47
2023-03-06T08:34:49.629Z,30.13
2023-03-06T08:37:17.536Z,29.47
2023-03-06T08:39:45.462Z,28.53
2023-03-06T08:42:13.747Z,29.50
2023-03-06T08:44:43.221Z,29.13
2023-03-06T08:47:11.164Z,29.43
2023-03-06T08:49:39.729Z,25.43
2023-03-06T08:52:08.314Z,26.53
2023-03-06T08:54:36.699Z,26.43
2023-03-06T08:57:04.761Z,20.83
2023-03-06T08:59:32.696Z,19.90
2023-03-06T09:02:05.348Z,18.10
2023-03-06T09:04:33.412Z,17.30
2023-03-06T09:07:02.306Z,19.00
2023-03-06T09:09:32.839Z,16.47
2023-03-06T09:12:00.740Z,17.67
2023-03-06T09:14:28.728Z,16.80
2023-03-06T09:16:56.801Z,15.10
2023-03-06T09:19:26.041Z,16.00
2023-03-06T09:21:54.069Z,15.10
2023-03-06T09:24:22.112Z,15.77
2023-03-06T09:26:51.596Z,20.70
2023-03-06T09:29:19.759Z,15.43
2023-03-06T09:31:47.687Z,15.50
2023-03-06T09:34:15.765Z,17.97
2023-03-06T09:36:56.652Z,14.53
2023-03-06T09:39:27.177Z,15.27
2023-03-06T09:41:56.729Z,17.63
2023-03-06T09:44:27.744Z,21.37
2023-03-06T09:47:10.933Z,20.97
2023-03-06T09:49:47.246Z,19.23
2023-03-06T09:52:31.745Z,22.93
2023-03-06T09:55:03.926Z,18.37
2023-03-06T09:57:36.259Z,22.23
2023-03-06T10:00:11.689Z,19.47
2023-03-06T10:02:44.205Z,19.83
2023-03-06T10:05:18.728Z,19.97
2023-03-06T10:07:53.925Z,21.40
2023-03-06T10:10:25.436Z,20.67
2023-03-06T10:13:04.030Z,19.07
2023-03-06T10:15:36.102Z,17.70
2023-03-06T10:18:04.922Z,20.03
2023-03-06T10:20:38.378Z,18.70
2023-03-06T10:23:30.175Z,19.53
2023-03-06T10:26:02.346Z,16.70
2023-03-06T10:28:37.028Z,15.77
2023-03-06T10:31:12.067Z,17.10
2023-03-06T10:33:53.255Z,18.60
2023-03-06T10:36:25.415Z,16.57
2023-03-06T10:38:56.200Z,18.13
2023-03-06T10:41:27.565Z,20.13
2023-03-06T10:44:24.666Z,17.27
2023-03-06T10:46:55.654Z,19.27
2023-03-06T10:49:30.962Z,17.90
2023-03-06T10:52:01.939Z,20.87
2023-03-06T10:54:33.400Z,16.97
2023-03-06T10:57:20.044Z,18.57
2023-03-06T10:59:55.786Z,23.00
2023-03-06T11:02:31.619Z,20.20
2023-03-06T11:05:01.303Z,16.77
2023-03-06T11:07:30.591Z,19.13
2023-03-06T11:10:17.865Z,18.03
2023-03-06T11:12:58.555Z,17.23
2023-03-06T11:15:27.358Z,15.10
2023-03-06T11:17:59.396Z,16.97
2023-03-06T11:20:41.514Z,18.17
2023-03-06T11:23:19.767Z,16.60
2023-03-06T11:25:53.270Z,19.33
2023-03-06T11:28:26.162Z,16.10
2023-03-06T11:30:57.630Z,18.07
2023-03-06T11:33:31.707Z,17.20
2023-03-06T11:36:05.408Z,19.13
2023-03-06T11:38:41.319Z,16.57
2023-03-06T11:41:20.209Z,18.03
2023-03-06T11:43:55.960Z,18.60
2023-03-06T11:46:29.244Z,20.83
2023-03-06T11:49:02.781Z,21.57
2023-03-06T11:51:35.663Z,14.93
2023-03-06T11:54:04.001Z,20.40
2023-03-06T11:56:43.744Z,17.00
2023-03-06T11:59:33.423Z,14.43
2023-03-06T12:02:15.802Z,15.07
2023-03-06T12:04:52.556Z,15.97
2023-03-06T12:07:30.239Z,18.07
2023-03-06T12:10:09.911Z,17.20
2023-03-06T12:13:12.051Z,16.03
2023-03-06T12:16:00.228Z,16.20
2023-03-06T12:18:39.116Z,19.80
2023-03-06T12:21:14.773Z,19.20
2023-03-06T12:24:04.623Z,16.00
2023-03-06T12:27:01.679Z,16.20
2023-03-06T12:29:51.270Z,16.20
2023-03-06T12:32:31.753Z,16.93
2023-03-06T12:35:14.137Z,14.37
2023-03-06T12:37:53.475Z,16.70
2023-03-06T12:40:51.821Z,12.40
2023-03-06T12:43:53.606Z,10.33
2023-03-06T12:46:25.233Z,15.03
2023-03-06T12:49:12.400Z,15.83
2023-03-06T12:51:44.335Z,13.17
2023-03-06T12:54:15.080Z,10.67
2023-03-06T12:56:43.942Z,11.03
2023-03-06T12:59:44.485Z,11.07
2023-03-06T13:03:00.444Z,10.90
2023-03-06T13:05:43.342Z,10.40
2023-03-06T13:08:34.170Z,11.03
2023-03-06T13:11:37.999Z,9.17
2023-03-06T13:14:23.642Z,8.63
2023-03-06T13:16:51.757Z,12.20
2023-03-06T13:19:22.431Z,10.83
2023-03-06T13:22:16.526Z,11.87
2023-03-06T13:24:45.458Z,10.30
2023-03-06T13:27:33.746Z,8.53
2023-03-06T13:30:23.153Z,10.73
2023-03-06T13:32:53.840Z,7.87
2023-03-06T13:35:52.426Z,8.53
2023-03-06T13:38:37.257Z,9.00
2023-03-06T13:41:28.235Z,7.60
2023-03-06T13:43:57.998Z,10.27
2023-03-06T13:46:30.084Z,8.87
2023-03-06T13:49:07.038Z,9.23
2023-03-06T13:51:37.538Z,10.60
2023-03-06T13:54:26.578Z,11.90
2023-03-06T13:57:33.180Z,12.33
2023-03-06T14:00:38.536Z,9.27
2023-03-06T14:03:37.884Z,9.90
2023-03-06T14:06:40.664Z,9.47
2023-03-06T14:09:20.125Z,11.70
2023-03-06T14:11:52.554Z,11.53
2023-03-06T14:14:24.885Z,9.33
2023-03-06T14:16:54.128Z,8.93
2023-03-06T14:19:22.706Z,10.90
2023-03-06T14:21:57.886Z,10.90
2023-03-06T14:24:34.620Z,9.67
2023-03-06T14:27:02.588Z,13.47
2023-03-06T14:29:31.075Z,10.80
2023-03-06T14:32:00.269Z,17.37
2023-03-06T14:34:29.933Z,18.40
2023-03-06T14:37:01.055Z,13.87
2023-03-06T14:39:35.123Z,18.67
2023-03-06T14:42:07.513Z,12.23
2023-03-06T14:44:35.591Z,11.40
2023-03-06T14:47:23.823Z,12.97
2023-03-06T14:50:19.407Z,11.93
2023-03-06T14:52:47.611Z,14.00
2023-03-06T14:55:19.893Z,13.17
2023-03-06T14:57:51.279Z,13.63
2023-03-06T15:00:22.232Z,12.73
2023-03-06T15:02:52.424Z,12.63
2023-03-06T15:05:23.629Z,18.30
2023-03-06T15:07:53.782Z,12.63
2023-03-06T15:10:26.174Z,13.13
2023-03-06T15:12:54.488Z,13.93
2023-03-06T15:15:28.808Z,15.53
2023-03-06T15:17:56.712Z,13.17
2023-03-06T15:20:47.154Z,14.10
2023-03-06T15:23:22.837Z,12.57
2023-03-06T15:25:57.161Z,13.93
2023-03-06T15:28:29.514Z,14.13
2023-03-06T15:31:19.466Z,12.73
2023-03-06T15:34:02.565Z,12.57
2023-03-06T15:36:32.664Z,16.00
2023-03-06T15:39:00.869Z,12.20
2023-03-06T15:41:34.635Z,14.97
2023-03-06T15:44:04.515Z,14.20
2023-03-06T15:46:32.415Z,17.13
2023-03-06T15:49:03.212Z,14.33
2023-03-06T15:51:31.803Z,16.27
2023-03-06T15:54:11.235Z,14.37
2023-03-06T15:56:43.145Z,16.27
2023-03-06T15:59:17.949Z,14.90
2023-03-06T16:01:45.928Z,15.27
2023-03-06T16:04:14.009Z,14.80
2023-03-06T16:06:42.140Z,14.60
2023-03-06T16:09:10.935Z,16.53
2023-03-06T16:11:43.954Z,20.77
2023-03-06T16:14:21.285Z,16.07
2023-03-06T16:16:50.087Z,16.17
2023-03-06T16:19:28.182Z,19.00
2023-03-06T16:21:56.686Z,12.83
2023-03-06T16:24:26.007Z,15.50
2023-03-06T16:26:55.759Z,13.40
2023-03-06T16:29:27.250Z,11.83
2023-03-06T16:31:57.114Z,16.77
2023-03-06T16:34:25.509Z,12.13
2023-03-06T16:36:53.414Z,14.30
2023-03-06T16:39:22.992Z,16.57
2023-03-06T16:41:51.837Z,14.73
2023-03-06T16:44:19.830Z,16.97
2023-03-06T16:46:50.903Z,16.37
2023-03-06T16:49:20.640Z,15.27
2023-03-06T16:51:49.002Z,17.47
2023-03-06T16:54:17.122Z,17.97
2023-03-06T16:56:45.912Z,19.03
2023-03-06T16:59:13.962Z,21.03
2023-03-06T17:01:43.145Z,17.50
2023-03-06T17:04:12.870Z,20.43
2023-03-06T17:06:41.602Z,16.77
2023-03-06T17:09:10.924Z,16.47
2023-03-06T17:11:42.743Z,17.03
2023-03-06T17:14:10.667Z,21.30
2023-03-06T17:16:40.260Z,15.50
2023-03-06T17:19:08.810Z,17.20
2023-03-06T17:21:38.517Z,19.23
2023-03-06T17:24:07.378Z,18.77
2023-03-06T17:26:36.522Z,18.73
2023-03-06T17:29:06.857Z,17.63
2023-03-06T17:31:34.913Z,16.87
2023-03-06T17:34:02.804Z,22.37
2023-03-06T17:36:31.501Z,18.40
2023-03-06T17:39:02.143Z,22.37
2023-03-06T17:41:30.198Z,19.27
2023-03-06T17:43:58.846Z,17.70
2023-03-06T17:46:27.306Z,19.83
2023-03-06T17:48:56.415Z,19.30
2023-03-06T17:51:24.488Z,22.03
2023-03-06T17:53:53.285Z,18.47
2023-03-06T17:56:22.496Z,20.80
2023-03-06T17:58:50.424Z,19.93
2023-03-06T18:01:20.630Z,22.77
2023-03-06T18:03:50.725Z,17.10
2023-03-06T18:06:20.669Z,20.23
2023-03-06T18:08:51.031Z,21.27
2023-03-06T18:11:22.085Z,22.53
2023-03-06T18:13:50.027Z,16.50
2023-03-06T18:16:19.640Z,19.73
2023-03-06T18:18:48.281Z,21.00
2023-03-06T18:21:16.910Z,19.40
2023-03-06T18:23:44.941Z,16.37
2023-03-06T18:26:14.478Z,16.50
2023-03-06T18:28:45.486Z,21.60
2023-03-06T18:31:17.501Z,16.07
2023-03-06T18:33:45.565Z,18.57
2023-03-06T18:36:13.447Z,15.97
2023-03-06T18:38:43.853Z,18.43
2023-03-06T18:41:12.753Z,16.87
2023-03-06T18:43:41.123Z,16.57
2023-03-06T18:46:10.814Z,19.07
2023-03-06T18:48:39.428Z,18.60
2023-03-06T18:51:09.005Z,19.13
2023-03-06T18:53:37.622Z,15.57
2023-03-06T18:56:05.887Z,17.30
2023-03-06T18:58:33.924Z,16.13
2023-03-06T19:01:07.228Z,18.17
2023-03-06T19:03:36.645Z,21.30
2023-03-06T19:06:06.401Z,17.47
2023-03-06T19:08:34.973Z,18.53
2023-03-06T19:11:04.461Z,16.83
2023-03-06T19:13:32.767Z,21.03
2023-03-06T19:16:00.880Z,17.53
2023-03-06T19:18:30.138Z,20.07
2023-03-06T19:21:10.072Z,16.80
2023-03-06T19:23:39.404Z,15.40
2023-03-06T19:26:07.880Z,15.07
2023-03-06T19:28:36.945Z,16.97
2023-03-06T19:31:12.914Z,17.13
2023-03-06T19:33:41.635Z,15.97
2023-03-06T19:36:13.057Z,17.83
2023-03-06T19:38:41.345Z,19.00
2023-03-06T19:41:13.559Z,18.50
2023-03-06T19:43:42.177Z,15.67
2023-03-06T19:46:13.004Z,21.93
2023-03-06T19:48:41.079Z,17.20
2023-03-06T19:51:11.215Z,17.73
2023-03-06T19:53:39.861Z,19.37
2023-03-06T19:56:10.424Z,16.47
2023-03-06T19:58:40.495Z,17.80
2023-03-06T20:01:10.910Z,16.20
2023-03-06T20:03:39.132Z,17.57
2023-03-06T20:06:09.204Z,17.30
2023-03-06T20:08:38.611Z,16.67
2023-03-06T20:11:06.578Z,15.47
2023-03-06T20:13:34.479Z,15.20
2023-03-06T20:16:04.342Z,16.27
2023-03-06T20:18:32.246Z,14.23
2023-03-06T20:21:01.539Z,14.53
2023-03-06T20:23:29.738Z,18.03
2023-03-06T20:26:02.917Z,14.37
2023-03-06T20:28:31.080Z,15.27
2023-03-06T20:30:58.970Z,13.90
2023-03-06T20:33:27.843Z,16.57
2023-03-06T20:35:55.787Z,14.10
2023-03-06T20:38:23.739Z,14.37
2023-03-06T20:40:54.582Z,15.27
2023-03-06T20:43:23.847Z,17.97
2023-03-06T20:45:59.055Z,14.00
2023-03-06T20:48:27.081Z,15.60
2023-03-06T20:51:02.206Z,15.37
2023-03-06T20:53:30.153Z,14.17
2023-03-06T20:55:58.172Z,17.07
2023-03-06T20:58:30.145Z,17.60
2023-03-06T21:00:58.207Z,14.33
2023-03-06T21:03:26.362Z,14.97
2023-03-06T21:05:54.309Z,14.73
2023-03-06T21:08:22.201Z,15.93
2023-03-06T21:10:50.728Z,16.97
2023-03-06T21:13:18.939Z,14.37
2023-03-06T21:15:48.314Z,19.07
2023-03-06T21:18:16.239Z,17.67
2023-03-06T21:20:44.260Z,16.13
2023-03-06T21:23:12.225Z,17.13
2023-03-06T21:25:48.560Z,14.17
2023-03-06T21:28:16.626Z,18.37
2023-03-06T21:30:44.956Z,14.87
2023-03-06T21:33:15.999Z,17.93
2023-03-06T21:35:44.847Z,17.50
2023-03-06T21:38:14.077Z,18.37
2023-03-06T21:40:42.961Z,17.73
2023-03-06T21:43:11.085Z,15.57
2023-03-06T21:45:39.007Z,16.97
2023-03-06T21:48:07.366Z,18.40
2023-03-06T21:50:36.633Z,14.50
2023-03-06T21:53:04.601Z,18.70
2023-03-06T21:55:32.693Z,18.00
2023-03-06T21:58:00.644Z,18.63
2023-03-06T22:00:28.623Z,17.87
2023-03-06T22:02:57.167Z,18.97
2023-03-06T22:05:25.762Z,20.23
2023-03-06T22:07:55.021Z,19.73
2023-03-06T22:10:22.902Z,19.07
2023-03-06T22:12:50.901Z,21.77
2023-03-06T22:15:20.394Z,17.80
2023-03-06T22:17:48.675Z,23.30
2023-03-06T22:20:16.993Z,21.20
2023-03-06T22:22:44.884Z,18.33
2023-03-06T22:25:14.762Z,20.37
2023-03-06T22:27:42.713Z,22.17
2023-03-06T22:30:11.735Z,20.40
2023-03-06T22:32:39.668Z,18.13
2023-03-06T22:35:08.369Z,20.47
2023-03-06T22:37:36.393Z,21.67
2023-03-06T22:40:04.541Z,21.90
2023-03-06T22:42:34.168Z,21.23
2023-03-06T22:45:02.056Z,21.97
2023-03-06T22:47:29.945Z,18.93
2023-03-06T22:49:57.785Z,18.80
2023-03-06T22:52:25.707Z,21.60
2023-03-06T22:54:53.611Z,16.43
2023-03-06T22:57:23.613Z,16.97
2023-03-06T22:59:52.864Z,18.57
2023-03-06T23:02:20.712Z,18.70
2023-03-06T23:04:52.352Z,17.27
2023-03-06T23:07:20.468Z,17.57
2023-03-06T23:09:48.357Z,16.77
2023-03-06T23:12:16.271Z,17.73
2023-03-06T23:14:46.718Z,18.83
2023-03-06T23:17:16.041Z,16.97
2023-03-06T23:19:43.989Z,15.23
2023-03-06T23:22:12.254Z,13.43
2023-03-06T23:24:40.235Z,15.80
2023-03-06T23:27:08.227Z,19.17
2023-03-06T23:29:36.150Z,16.40
2023-03-06T23:32:04.364Z,15.57
2023-03-06T23:34:33.672Z,12.97
2023-03-06T23:37:01.718Z,15.17
2023-03-06T23:39:30.626Z,14.03
2023-03-06T23:41:58.485Z,13.97
2023-03-06T23:44:26.394Z,13.17
2023-03-06T23:46:54.328Z,12.57
2023-03-06T23:49:22.179Z,13.20
2023-03-06T23:51:51.357Z,12.87
2023-03-06T23:54:19.203Z,11.67
2023-03-06T23:56:47.073Z,10.17
2023-03-06T23:59:15.053Z,11.33
